createdAt,value
2024-03-31T00:00:55.770Z,95.4452
2024-03-31T00:01:59.083Z,95.5901
2024-03-31T00:03:02.062Z,95.7824
2024-03-31T00:04:05.219Z,95.8160
2024-03-31T00:05:08.509Z,95.9075
2024-03-31T00:06:11.624Z,95.8968
2024-03-31T00:07:14.808Z,95.9899
2024-03-31T00:08:17.808Z,96.0677
2024-03-31T00:09:20.860Z,96.0845
2024-03-31T00:10:23.868Z,96.1547
2024-03-31T00:11:27.081Z,96.1486
2024-03-31T00:12:30.162Z,96.2448
2024-03-31T00:13:33.217Z,96.3043
2024-03-31T00:14:36.532Z,96.4279
2024-03-31T00:15:39.630Z,96.5240
2024-03-31T00:16:42.590Z,96.5972
2024-03-31T00:17:45.690Z,96.6674
2024-03-31T00:18:48.819Z,96.7132
2024-03-31T00:19:51.876Z,96.7636
2024-03-31T00:20:54.895Z,96.8093
2024-03-31T00:21:57.942Z,96.8643
2024-03-31T00:23:00.982Z,96.8444
2024-03-31T00:24:04.053Z,96.8673
2024-03-31T00:25:07.084Z,96.9329
2024-03-31T00:26:10.122Z,96.9635
2024-03-31T00:27:13.068Z,97.0092
2024-03-31T00:28:16.229Z,97.0062
2024-03-31T00:29:20.405Z,97.0321
2024-03-31T00:30:23.365Z,97.0642
2024-03-31T00:31:26.487Z,97.0886
2024-03-31T00:32:29.729Z,97.0825
2024-03-31T00:33:32.839Z,97.1161
2024-03-31T00:34:37.024Z,97.0871
2024-03-31T00:35:40.038Z,97.1435
2024-03-31T00:36:43.107Z,97.1786
2024-03-31T00:37:46.144Z,97.1847
2024-03-31T00:38:49.145Z,97.1969
2024-03-31T00:39:52.218Z,97.2473
2024-03-31T00:40:55.259Z,97.2427
2024-03-31T00:41:59.235Z,97.2976
2024-03-31T00:43:02.296Z,97.2931
2024-03-31T00:44:05.335Z,97.3816
2024-03-31T00:45:08.538Z,97.4319
2024-03-31T00:46:11.651Z,97.4685
2024-03-31T00:47:14.831Z,97.4853
2024-03-31T00:48:17.927Z,97.5372
2024-03-31T00:49:20.889Z,97.5174
2024-03-31T00:50:23.827Z,97.6272
2024-03-31T00:51:26.819Z,97.5769
2024-03-31T00:52:29.887Z,97.6043
2024-03-31T00:53:33.022Z,97.5967
2024-03-31T00:54:36.022Z,97.6150
2024-03-31T00:55:39.104Z,97.6135
2024-03-31T00:56:42.064Z,97.6196
2024-03-31T00:57:45.157Z,97.6776
2024-03-31T00:58:48.192Z,97.6364
2024-03-31T00:59:51.290Z,97.6318
2024-03-31T01:00:54.296Z,97.6791
2024-03-31T01:01:57.348Z,97.6654
2024-03-31T01:03:00.425Z,97.6699
2024-03-31T01:04:03.415Z,97.6593
2024-03-31T01:05:06.485Z,97.6410
2024-03-31T01:06:09.476Z,97.6745
2024-03-31T01:07:12.542Z,97.6410
2024-03-31T01:08:15.535Z,97.6455
2024-03-31T01:09:20.764Z,97.6379
2024-03-31T01:10:23.908Z,97.6745
2024-03-31T01:11:26.936Z,97.6745
2024-03-31T01:12:30.006Z,97.6226
2024-03-31T01:13:32.988Z,97.6242
2024-03-31T01:14:36.058Z,97.6104
2024-03-31T01:15:39.088Z,97.6638
2024-03-31T01:16:42.143Z,97.6272
2024-03-31T01:17:45.174Z,97.6547
2024-03-31T01:18:48.234Z,97.6333
2024-03-31T01:19:51.168Z,97.6287
2024-03-31T01:20:54.494Z,97.6547
2024-03-31T01:21:57.644Z,97.6684
2024-03-31T01:23:00.622Z,97.6379
2024-03-31T01:24:03.748Z,97.6608
2024-03-31T01:25:06.798Z,97.6791
2024-03-31T01:26:09.971Z,97.6654
2024-03-31T01:27:13.094Z,97.7050
2024-03-31T01:28:16.232Z,97.6593
2024-03-31T01:29:19.411Z,97.7020
2024-03-31T01:30:22.375Z,97.6822
2024-03-31T01:31:25.579Z,97.7142
2024-03-31T01:32:28.847Z,97.7066
2024-03-31T01:33:32.019Z,97.7279
2024-03-31T01:34:35.074Z,97.7615
2024-03-31T01:35:38.339Z,97.7325
2024-03-31T01:36:41.447Z,97.7737
2024-03-31T01:37:44.538Z,97.8027
2024-03-31T01:38:55.197Z,97.8119
2024-03-31T01:39:56.376Z,97.8027
2024-03-31T01:40:59.431Z,97.8027
2024-03-31T01:42:02.456Z,97.8210
2024-03-31T01:43:05.481Z,97.8119
2024-03-31T01:44:08.520Z,97.8210
2024-03-31T01:45:11.503Z,97.8256
2024-03-31T01:46:14.649Z,97.8195
2024-03-31T01:47:17.663Z,97.8759
2024-03-31T01:48:20.828Z,97.8531
2024-03-31T01:49:23.961Z,97.8576
2024-03-31T01:50:27.059Z,97.8805
2024-03-31T01:51:30.313Z,97.8302
2024-03-31T01:52:33.377Z,97.8790
2024-03-31T01:53:36.580Z,97.8653
2024-03-31T01:54:39.808Z,97.8607
2024-03-31T01:55:42.935Z,97.8393
2024-03-31T01:56:45.987Z,97.8897
2024-03-31T01:57:48.984Z,97.8805
2024-03-31T01:58:51.934Z,97.9538
2024-03-31T01:59:55.076Z,97.9339
2024-03-31T02:00:58.270Z,97.9202
2024-03-31T02:02:01.365Z,97.9522
2024-03-31T02:03:04.539Z,97.9431
2024-03-31T02:04:07.730Z,97.9309
2024-03-31T02:05:10.818Z,97.9767
2024-03-31T02:06:13.972Z,97.9706
2024-03-31T02:07:16.954Z,98.0041
2024-03-31T02:08:20.072Z,98.0224
2024-03-31T02:09:23.099Z,98.0026
2024-03-31T02:10:26.097Z,98.0224
2024-03-31T02:11:29.153Z,98.0255
2024-03-31T02:12:32.231Z,98.0407
2024-03-31T02:13:35.251Z,98.0758
2024-03-31T02:14:38.241Z,98.0667
2024-03-31T02:15:41.337Z,98.0346
2024-03-31T02:16:44.384Z,98.0392
2024-03-31T02:17:47.405Z,98.0346
2024-03-31T02:18:50.447Z,98.0591
2024-03-31T02:19:53.423Z,98.0362
2024-03-31T02:20:56.474Z,98.0316
2024-03-31T02:21:59.600Z,98.0255
2024-03-31T02:23:02.606Z,98.0636
2024-03-31T02:24:05.588Z,98.0896
2024-03-31T02:25:08.573Z,98.1552
2024-03-31T02:26:11.723Z,98.1353
2024-03-31T02:27:14.700Z,98.1537
2024-03-31T02:28:17.768Z,98.1811
2024-03-31T02:29:20.859Z,98.1598
2024-03-31T02:30:23.853Z,98.1582
2024-03-31T02:31:26.950Z,98.2010
2024-03-31T02:32:29.949Z,98.2132
2024-03-31T02:33:33.022Z,98.2238
2024-03-31T02:34:36.047Z,98.2269
2024-03-31T02:35:39.046Z,98.2193
2024-03-31T02:36:42.140Z,98.2559
2024-03-31T02:37:45.118Z,98.2651
2024-03-31T02:38:48.219Z,98.3093
2024-03-31T02:39:51.239Z,98.2956
2024-03-31T02:40:54.248Z,98.2635
2024-03-31T02:41:57.355Z,98.2910
2024-03-31T02:43:00.377Z,98.2971
2024-03-31T02:44:03.358Z,98.2773
2024-03-31T02:45:06.387Z,98.3246
2024-03-31T02:46:09.380Z,98.3566
2024-03-31T02:47:12.486Z,98.3749
2024-03-31T02:48:15.583Z,98.3734
2024-03-31T02:49:18.557Z,98.4329
2024-03-31T02:50:21.638Z,98.4009
2024-03-31T02:51:24.686Z,98.4237
2024-03-31T02:52:27.747Z,98.4344
2024-03-31T02:53:30.790Z,98.4573
2024-03-31T02:54:33.826Z,98.4436
2024-03-31T02:55:36.829Z,98.4710
2024-03-31T02:56:39.924Z,98.4573
2024-03-31T02:57:42.949Z,98.4787
2024-03-31T02:58:45.981Z,98.4878
2024-03-31T02:59:48.967Z,98.5153
2024-03-31T03:00:52.030Z,98.4833
2024-03-31T03:01:55.085Z,98.4924
2024-03-31T03:02:58.149Z,98.5443
2024-03-31T03:04:01.135Z,98.4710
2024-03-31T03:05:04.191Z,98.5153
2024-03-31T03:06:07.188Z,98.5122
2024-03-31T03:07:10.269Z,98.5397
2024-03-31T03:08:13.355Z,98.5580
2024-03-31T03:09:16.362Z,98.5306
2024-03-31T03:10:19.351Z,98.5580
2024-03-31T03:11:22.456Z,98.5763
2024-03-31T03:12:26.475Z,98.5702
2024-03-31T03:13:29.443Z,98.6023
2024-03-31T03:14:32.550Z,98.5885
2024-03-31T03:15:35.597Z,98.6313
2024-03-31T03:16:38.574Z,98.6252
2024-03-31T03:17:41.638Z,98.6313
2024-03-31T03:18:44.731Z,98.6084
2024-03-31T03:19:47.711Z,98.6313
2024-03-31T03:20:50.780Z,98.6404
2024-03-31T03:21:53.836Z,98.6221
2024-03-31T03:22:56.823Z,98.6175
2024-03-31T03:23:59.785Z,98.6435
2024-03-31T03:25:02.942Z,98.6084
2024-03-31T03:26:05.998Z,98.6908
2024-03-31T03:27:09.014Z,98.6908
2024-03-31T03:28:12.060Z,98.6954
2024-03-31T03:29:15.061Z,98.6908
2024-03-31T03:30:18.116Z,98.6999
2024-03-31T03:31:21.163Z,98.6679
2024-03-31T03:32:24.219Z,98.7045
2024-03-31T03:33:27.364Z,98.7076
2024-03-31T03:34:30.380Z,98.7640
2024-03-31T03:35:33.545Z,98.7167
2024-03-31T03:36:36.545Z,98.7594
2024-03-31T03:37:39.639Z,98.7396
2024-03-31T03:38:42.779Z,98.7259
2024-03-31T03:39:45.768Z,98.7533
2024-03-31T03:40:48.743Z,98.7396
2024-03-31T03:41:51.873Z,98.7808
2024-03-31T03:42:54.929Z,98.6954
2024-03-31T03:43:57.967Z,98.7121
2024-03-31T03:45:00.987Z,98.6816
2024-03-31T03:46:04.061Z,98.6984
2024-03-31T03:47:07.125Z,98.6938
2024-03-31T03:48:10.113Z,98.6770
2024-03-31T03:49:13.173Z,98.7167
2024-03-31T03:50:16.167Z,98.7350
2024-03-31T03:51:19.264Z,98.7259
2024-03-31T03:52:22.315Z,98.6954
2024-03-31T03:53:25.369Z,98.6816
2024-03-31T03:54:28.372Z,98.7305
2024-03-31T03:55:31.388Z,98.7259
2024-03-31T03:56:34.323Z,98.7213
2024-03-31T03:57:37.420Z,98.7213
2024-03-31T03:58:40.566Z,98.6908
2024-03-31T03:59:43.591Z,98.7411
2024-03-31T04:00:46.579Z,98.7228
2024-03-31T04:01:50.633Z,98.6984
2024-03-31T04:02:53.597Z,98.7350
2024-03-31T04:03:56.708Z,98.7228
2024-03-31T04:04:59.743Z,98.7533
2024-03-31T04:06:02.757Z,98.7396
2024-03-31T04:07:05.805Z,98.7503
2024-03-31T04:08:08.869Z,98.7137
2024-03-31T04:09:11.837Z,98.7350
2024-03-31T04:10:14.963Z,98.7488
2024-03-31T04:11:17.987Z,98.7625
2024-03-31T04:12:20.962Z,98.7961
2024-03-31T04:13:24.040Z,98.7549
2024-03-31T04:14:27.097Z,98.7457
2024-03-31T04:15:30.094Z,98.7488
2024-03-31T04:16:33.186Z,98.7488
2024-03-31T04:17:36.221Z,98.7594
2024-03-31T04:18:39.226Z,98.7778
2024-03-31T04:19:42.148Z,98.7732
2024-03-31T04:20:45.136Z,98.7625
2024-03-31T04:21:48.257Z,98.7762
2024-03-31T04:22:51.224Z,98.7579
2024-03-31T04:23:54.322Z,98.7671
2024-03-31T04:24:57.471Z,98.8373
2024-03-31T04:26:00.535Z,98.7457
2024-03-31T04:27:03.588Z,98.8052
2024-03-31T04:28:06.613Z,98.8037
2024-03-31T04:29:09.648Z,98.8129
2024-03-31T04:30:12.708Z,98.8220
2024-03-31T04:31:15.760Z,98.8174
2024-03-31T04:32:18.774Z,98.8098
2024-03-31T04:33:21.874Z,98.8769
2024-03-31T04:34:24.867Z,98.8647
2024-03-31T04:35:27.852Z,98.8830
2024-03-31T04:36:30.926Z,98.8556
2024-03-31T04:37:33.990Z,98.8556
2024-03-31T04:38:36.977Z,98.8418
2024-03-31T04:39:39.958Z,98.8464
2024-03-31T04:40:43.085Z,98.8373
2024-03-31T04:41:46.280Z,98.8632
2024-03-31T04:42:49.375Z,98.8830
2024-03-31T04:43:52.523Z,98.8403
2024-03-31T04:44:55.725Z,98.8602
2024-03-31T04:45:58.820Z,98.8586
2024-03-31T04:47:01.965Z,98.8449
2024-03-31T04:48:05.172Z,98.8052
2024-03-31T04:49:08.169Z,98.8815
2024-03-31T04:50:11.300Z,98.8540
2024-03-31T04:51:14.438Z,98.8495
2024-03-31T04:52:17.498Z,98.8190
2024-03-31T04:53:20.539Z,98.8235
2024-03-31T04:54:23.549Z,98.7808
2024-03-31T04:55:26.603Z,98.7961
2024-03-31T04:56:29.649Z,98.8190
2024-03-31T04:57:32.658Z,98.8037
2024-03-31T04:58:35.705Z,98.8129
2024-03-31T04:59:38.799Z,98.7717
2024-03-31T05:00:41.893Z,98.7945
2024-03-31T05:01:44.854Z,98.8220
2024-03-31T05:02:47.904Z,98.8190
2024-03-31T05:03:50.962Z,98.8037
2024-03-31T05:04:53.994Z,98.7900
2024-03-31T05:05:57.011Z,98.7854
2024-03-31T05:07:00.025Z,98.7991
2024-03-31T05:08:03.043Z,98.7945
2024-03-31T05:09:05.989Z,98.8098
2024-03-31T05:10:09.059Z,98.8495
2024-03-31T05:11:12.225Z,98.8495
2024-03-31T05:12:15.286Z,98.8144
2024-03-31T05:13:18.498Z,98.8373
2024-03-31T05:14:21.583Z,98.8129
2024-03-31T05:15:24.708Z,98.8357
2024-03-31T05:16:27.739Z,98.8464
2024-03-31T05:17:30.757Z,98.8418
2024-03-31T05:18:33.832Z,98.8190
2024-03-31T05:19:36.839Z,98.8510
2024-03-31T05:20:39.787Z,98.8373
2024-03-31T05:21:42.916Z,98.8373
2024-03-31T05:22:45.983Z,98.8418
2024-03-31T05:23:49.024Z,98.8357
2024-03-31T05:24:52.059Z,98.8327
2024-03-31T05:25:55.123Z,98.8449
2024-03-31T05:26:58.144Z,98.8602
2024-03-31T05:28:01.147Z,98.8739
2024-03-31T05:29:04.240Z,98.8556
2024-03-31T05:30:07.245Z,98.8312
2024-03-31T05:31:10.377Z,98.8373
2024-03-31T05:32:13.563Z,98.8449
2024-03-31T05:33:16.673Z,98.8327
2024-03-31T05:34:19.649Z,98.8052
2024-03-31T05:35:22.756Z,98.8220
2024-03-31T05:36:25.825Z,98.8174
2024-03-31T05:37:28.862Z,98.7961
2024-03-31T05:38:31.919Z,98.7961
2024-03-31T05:39:34.927Z,98.7686
2024-03-31T05:40:37.920Z,98.7900
2024-03-31T05:41:41.001Z,98.7320
2024-03-31T05:42:44.078Z,98.7488
2024-03-31T05:43:47.031Z,98.7121
2024-03-31T05:44:50.180Z,98.7259
2024-03-31T05:45:53.167Z,98.6954
2024-03-31T05:46:56.365Z,98.6679
2024-03-31T05:47:59.507Z,98.6572
2024-03-31T05:49:02.632Z,98.6068
2024-03-31T05:50:05.795Z,98.6709
2024-03-31T05:51:08.892Z,98.5611
2024-03-31T05:52:12.037Z,98.5718
2024-03-31T05:53:15.243Z,98.5397
2024-03-31T05:54:18.367Z,98.5214
2024-03-31T05:55:21.330Z,98.5016
2024-03-31T05:56:24.415Z,98.4329
2024-03-31T05:57:27.604Z,98.4421
2024-03-31T05:58:30.602Z,98.4237
2024-03-31T05:59:33.582Z,98.3780
2024-03-31T06:00:36.537Z,98.3642
2024-03-31T06:01:39.619Z,98.2818
2024-03-31T06:02:42.765Z,98.3093
2024-03-31T06:03:45.805Z,98.2284
2024-03-31T06:04:48.872Z,98.1903
2024-03-31T06:05:51.893Z,98.1414
2024-03-31T06:06:54.962Z,98.0453
2024-03-31T06:07:58.024Z,97.9812
2024-03-31T06:09:01.005Z,97.9080
2024-03-31T06:10:04.125Z,97.8531
2024-03-31T06:11:07.118Z,97.7783
2024-03-31T06:12:10.110Z,97.6913
2024-03-31T06:13:13.123Z,97.6104
2024-03-31T06:14:16.208Z,97.5189
2024-03-31T06:15:19.233Z,97.4304
2024-03-31T06:16:22.211Z,97.2976
2024-03-31T06:17:25.475Z,97.2335
2024-03-31T06:18:28.583Z,97.1161
2024-03-31T06:19:31.860Z,97.1572
2024-03-31T06:20:34.967Z,97.1099
2024-03-31T06:21:38.085Z,97.1099
2024-03-31T06:22:41.317Z,97.1191
2024-03-31T06:23:44.421Z,97.0962
2024-03-31T06:24:47.616Z,97.0749
2024-03-31T06:25:50.607Z,97.0565
2024-03-31T06:26:53.665Z,97.0413
2024-03-31T06:27:56.707Z,96.9924
2024-03-31T06:28:59.889Z,96.9497
2024-03-31T06:30:02.982Z,96.9085
2024-03-31T06:31:06.016Z,96.8460
2024-03-31T06:32:09.360Z,96.8139
2024-03-31T06:33:12.428Z,96.7300
2024-03-31T06:34:15.564Z,96.6339
2024-03-31T06:35:18.764Z,96.5148
2024-03-31T06:36:21.851Z,96.3241
2024-03-31T06:37:25.025Z,96.1730
2024-03-31T06:38:28.065Z,95.8556
2024-03-31T06:39:31.089Z,95.5673
2024-03-31T06:40:34.164Z,95.4223
2024-03-31T06:41:37.159Z,95.4162
2024-03-31T06:42:40.201Z,95.2285
2024-03-31T06:43:43.260Z,95.0317
2024-03-31T06:44:46.304Z,94.6395
2024-03-31T06:45:49.367Z,94.7524
2024-03-31T06:46:52.389Z,94.9691
2024-03-31T06:47:55.409Z,94.7906
2024-03-31T06:48:58.471Z,94.8501
2024-03-31T06:50:01.505Z,94.8455
2024-03-31T06:51:04.684Z,94.7219
2024-03-31T06:52:09.686Z,94.4793
2024-03-31T06:53:12.792Z,94.3633
2024-03-31T06:54:15.773Z,94.3465
2024-03-31T06:55:18.918Z,94.5251
2024-03-31T06:56:22.098Z,94.7631
2024-03-31T06:57:25.250Z,94.3282
2024-03-31T06:58:28.263Z,93.9300
2024-03-31T06:59:31.364Z,94.0352
2024-03-31T07:00:34.466Z,93.4813
2024-03-31T07:01:37.457Z,93.0419
2024-03-31T07:02:40.690Z,93.7545
2024-03-31T07:03:43.799Z,93.2967
2024-03-31T07:04:46.904Z,93.2097
2024-03-31T07:05:49.922Z,93.2281
2024-03-31T07:06:53.002Z,93.1869
2024-03-31T07:07:56.080Z,93.4157
2024-03-31T07:08:59.040Z,93.4798
2024-03-31T07:10:02.093Z,93.0129
2024-03-31T07:11:05.188Z,93.1365
2024-03-31T07:12:08.241Z,92.9397
2024-03-31T07:13:11.232Z,93.3166
2024-03-31T07:14:14.331Z,93.2982
2024-03-31T07:15:17.382Z,93.3120
2024-03-31T07:16:20.398Z,93.1380
2024-03-31T07:17:23.443Z,92.9076
2024-03-31T07:18:26.471Z,92.5872
2024-03-31T07:19:29.519Z,93.2555
2024-03-31T07:20:32.540Z,93.7057
2024-03-31T07:21:35.569Z,93.9330
2024-03-31T07:22:38.580Z,93.8781
2024-03-31T07:23:41.766Z,93.4478
2024-03-31T07:24:44.770Z,93.2967
2024-03-31T07:25:47.955Z,92.9397
2024-03-31T07:26:51.102Z,93.0739
2024-03-31T07:27:54.114Z,93.3303
2024-03-31T07:28:57.175Z,93.1365
2024-03-31T07:30:00.257Z,92.8496
2024-03-31T07:31:03.246Z,92.8634
2024-03-31T07:32:06.188Z,92.6574
2024-03-31T07:33:09.325Z,91.9524
2024-03-31T07:34:12.583Z,92.2896
2024-03-31T07:35:15.753Z,92.2713
2024-03-31T07:36:18.795Z,92.2118
2024-03-31T07:37:21.822Z,92.2759
2024-03-31T07:38:24.867Z,92.1248
2024-03-31T07:39:27.846Z,91.7769
2024-03-31T07:40:30.926Z,92.2133
2024-03-31T07:41:34.142Z,92.1035
2024-03-31T07:42:37.225Z,92.0897
2024-03-31T07:43:40.374Z,91.9249
2024-03-31T07:44:43.423Z,92.0851
2024-03-31T07:45:46.463Z,91.3848
2024-03-31T07:46:49.510Z,91.3024
2024-03-31T07:47:52.558Z,91.3207
2024-03-31T07:48:55.578Z,90.8217
2024-03-31T07:49:58.622Z,90.3716
2024-03-31T07:51:01.613Z,90.4952
2024-03-31T07:52:04.724Z,89.3980
2024-03-31T07:53:09.349Z,88.6229
2024-03-31T07:54:13.978Z,89.2500
2024-03-31T07:55:17.164Z,89.5933
2024-03-31T07:56:20.283Z,89.1554
2024-03-31T07:57:23.389Z,87.9011
2024-03-31T07:58:26.390Z,87.8416
2024-03-31T07:59:29.493Z,87.4784
2024-03-31T08:00:32.544Z,87.6677
2024-03-31T08:01:35.722Z,87.2419
2024-03-31T08:02:38.818Z,87.4327
2024-03-31T08:03:41.981Z,85.9052
2024-03-31T08:04:44.968Z,84.9607
2024-03-31T08:05:48.069Z,86.6041
2024-03-31T08:06:51.125Z,84.7684
2024-03-31T08:07:54.104Z,86.2425
2024-03-31T08:08:57.179Z,84.8463
2024-03-31T08:10:00.292Z,85.1621
2024-03-31T08:11:03.390Z,86.5370
2024-03-31T08:12:06.507Z,85.1225
2024-03-31T08:13:09.535Z,84.5716
2024-03-31T08:14:12.851Z,85.4612
2024-03-31T08:15:15.943Z,86.2379
2024-03-31T08:16:19.083Z,85.5665
2024-03-31T08:17:22.263Z,84.8203
2024-03-31T08:18:25.392Z,84.1001
2024-03-31T08:19:28.561Z,82.9191
2024-03-31T08:20:31.611Z,83.9368
2024-03-31T08:21:34.594Z,81.6464
2024-03-31T08:22:37.645Z,81.7838
2024-03-31T08:23:40.726Z,80.6912
2024-03-31T08:24:43.753Z,82.7741
2024-03-31T08:25:46.809Z,82.1195
2024-03-31T08:26:49.777Z,81.5015
2024-03-31T08:27:52.858Z,81.1994
2024-03-31T08:28:55.934Z,81.9074
2024-03-31T08:29:58.932Z,82.9465
2024-03-31T08:31:01.948Z,82.6734
2024-03-31T08:32:05.033Z,82.2965
2024-03-31T08:33:08.037Z,82.7634
2024-03-31T08:34:11.016Z,83.2273
2024-03-31T08:35:14.147Z,84.3565
2024-03-31T08:36:17.190Z,81.5366
2024-03-31T08:37:20.414Z,81.8845
2024-03-31T08:38:23.590Z,81.3687
2024-03-31T08:39:26.583Z,82.2232
2024-03-31T08:40:29.668Z,82.3850
2024-03-31T08:41:32.690Z,83.0625
2024-03-31T08:42:35.719Z,81.7029
2024-03-31T08:43:38.963Z,81.9623
2024-03-31T08:44:42.139Z,83.5019
2024-03-31T08:45:45.162Z,83.9323
2024-03-31T08:46:48.223Z,83.1678
2024-03-31T08:47:51.237Z,82.2019
2024-03-31T08:48:54.301Z,82.6322
2024-03-31T08:49:57.317Z,82.7512
2024-03-31T08:51:00.384Z,83.0213
2024-03-31T08:52:03.460Z,82.1408
2024-03-31T08:53:06.439Z,83.0854
2024-03-31T08:54:09.505Z,83.1800
2024-03-31T08:55:12.549Z,83.7430
2024-03-31T08:56:15.514Z,82.2065
2024-03-31T08:57:18.615Z,82.8000
2024-03-31T08:58:21.693Z,81.4176
2024-03-31T08:59:24.674Z,81.2909
2024-03-31T09:00:27.754Z,82.1134
2024-03-31T09:01:30.779Z,80.9827
2024-03-31T09:02:33.966Z,80.9567
2024-03-31T09:03:36.959Z,80.4761
2024-03-31T09:04:39.947Z,81.4694
2024-03-31T09:05:42.912Z,81.1490
2024-03-31T09:06:45.988Z,80.5356
2024-03-31T09:07:49.015Z,80.1740
2024-03-31T09:08:52.018Z,80.2411
2024-03-31T09:09:55.299Z,80.1358
2024-03-31T09:10:58.464Z,79.7253
2024-03-31T09:12:01.472Z,79.9496
2024-03-31T09:13:07.198Z,81.7945
2024-03-31T09:14:10.408Z,80.5356
2024-03-31T09:15:13.501Z,81.9684
2024-03-31T09:16:16.549Z,80.8454
2024-03-31T09:17:19.595Z,80.9827
2024-03-31T09:18:22.642Z,81.4862
2024-03-31T09:19:25.739Z,81.9806
2024-03-31T09:20:28.696Z,81.5732
2024-03-31T09:21:31.746Z,82.6581
2024-03-31T09:22:34.784Z,83.0442
2024-03-31T09:23:37.947Z,82.3896
2024-03-31T09:24:41.055Z,82.3896
2024-03-31T09:25:44.225Z,82.7726
2024-03-31T09:26:47.399Z,82.9374
2024-03-31T09:27:50.504Z,83.7491
2024-03-31T09:28:53.669Z,82.3468
2024-03-31T09:29:56.655Z,82.4521
2024-03-31T09:30:59.753Z,82.2110
2024-03-31T09:32:02.762Z,81.6968
2024-03-31T09:33:05.766Z,81.8845
2024-03-31T09:34:08.853Z,82.6505
2024-03-31T09:35:11.920Z,81.7746
2024-03-31T09:36:14.902Z,81.3504
2024-03-31T09:37:17.988Z,80.8606
2024-03-31T09:38:21.001Z,80.4074
2024-03-31T09:39:24.024Z,80.8011
2024-03-31T09:40:27.080Z,79.2081
2024-03-31T09:41:30.153Z,79.9115
2024-03-31T09:42:33.147Z,77.8714
2024-03-31T09:43:36.222Z,78.2559
2024-03-31T09:44:39.269Z,78.2498
2024-03-31T09:45:42.443Z,76.9375
2024-03-31T09:46:45.536Z,75.9289
2024-03-31T09:47:48.710Z,75.0378
2024-03-31T09:48:51.764Z,73.8003
2024-03-31T09:49:54.759Z,73.8415
2024-03-31T09:50:57.825Z,76.2905
2024-03-31T09:52:00.825Z,77.4166
2024-03-31T09:53:03.883Z,77.8576
2024-03-31T09:54:06.950Z,79.0982
2024-03-31T09:55:09.924Z,78.6542
2024-03-31T09:56:13.020Z,79.7742
2024-03-31T09:57:16.062Z,78.6358
2024-03-31T09:58:19.088Z,79.6979
2024-03-31T09:59:22.107Z,79.7009
2024-03-31T10:00:25.086Z,80.2365
2024-03-31T10:01:28.201Z,79.5651
2024-03-31T10:02:31.198Z,78.7442
2024-03-31T10:03:34.283Z,78.9960
2024-03-31T10:04:37.331Z,79.3576
2024-03-31T10:05:40.336Z,78.2086
2024-03-31T10:06:43.429Z,77.9171
2024-03-31T10:07:46.475Z,77.4121
2024-03-31T10:08:49.671Z,77.7874
2024-03-31T10:09:52.809Z,78.0713
2024-03-31T10:10:55.882Z,76.9818
2024-03-31T10:11:59.095Z,78.2223
2024-03-31T10:13:02.182Z,76.4752
2024-03-31T10:14:05.307Z,76.4050
2024-03-31T10:15:08.527Z,77.5952
2024-03-31T10:16:11.623Z,75.2163
2024-03-31T10:17:14.746Z,75.1934
2024-03-31T10:18:17.808Z,75.6191
2024-03-31T10:19:20.902Z,76.4599
2024-03-31T10:20:23.857Z,75.5123
2024-03-31T10:21:26.858Z,74.2946
2024-03-31T10:22:29.975Z,74.0185
2024-03-31T10:23:33.030Z,74.3206
2024-03-31T10:24:36.029Z,72.4590
2024-03-31T10:25:39.075Z,73.1991
2024-03-31T10:26:42.091Z,70.6554
2024-03-31T10:27:45.144Z,71.1665
2024-03-31T10:28:48.206Z,72.1157
2024-03-31T10:29:51.249Z,70.6691
2024-03-31T10:30:54.311Z,72.8206
2024-03-31T10:31:57.343Z,72.7932
2024-03-31T10:33:00.356Z,71.8441
2024-03-31T10:34:03.434Z,72.0699
2024-03-31T10:35:06.646Z,73.7758
2024-03-31T10:36:09.828Z,72.5139
2024-03-31T10:37:12.847Z,74.0688
2024-03-31T10:38:15.855Z,72.3720
2024-03-31T10:39:18.958Z,71.9646
2024-03-31T10:40:21.970Z,71.9448
2024-03-31T10:41:25.010Z,71.0979
2024-03-31T10:42:28.084Z,71.9554
2024-03-31T10:43:31.069Z,70.5074
2024-03-31T10:44:34.162Z,70.3120
2024-03-31T10:45:37.186Z,69.2714
2024-03-31T10:46:40.183Z,72.0470
2024-03-31T10:47:43.428Z,70.4631
2024-03-31T10:48:46.638Z,69.1402
2024-03-31T10:49:49.624Z,68.5252
2024-03-31T10:50:52.670Z,68.7648
2024-03-31T10:51:55.769Z,68.7495
2024-03-31T10:52:58.776Z,68.0140
2024-03-31T10:54:01.829Z,68.7999
2024-03-31T10:55:04.864Z,69.4957
2024-03-31T10:56:07.849Z,69.3874
2024-03-31T10:57:10.874Z,69.2500
2024-03-31T10:58:13.975Z,69.6437
2024-03-31T10:59:17.019Z,69.4606
2024-03-31T11:00:20.199Z,70.0832
2024-03-31T11:01:23.308Z,68.5206
2024-03-31T11:02:26.473Z,68.9693
2024-03-31T11:03:29.522Z,68.2109
2024-03-31T11:04:32.552Z,67.7394
2024-03-31T11:05:35.526Z,68.0079
2024-03-31T11:06:38.519Z,69.7612
2024-03-31T11:07:41.538Z,68.7404
2024-03-31T11:08:44.731Z,69.0944
2024-03-31T11:09:47.763Z,68.0552
2024-03-31T11:10:50.775Z,67.5563
2024-03-31T11:11:55.003Z,67.5456
2024-03-31T11:12:59.102Z,67.5975
2024-03-31T11:14:02.163Z,66.2226
2024-03-31T11:15:05.308Z,65.3162
2024-03-31T11:16:08.418Z,62.3148
2024-03-31T11:17:11.591Z,62.3911
2024-03-31T11:18:14.746Z,61.7823
2024-03-31T11:19:20.025Z,60.8682
2024-03-31T11:20:24.422Z,62.4338
2024-03-31T11:21:27.624Z,57.7874
2024-03-31T11:22:30.610Z,56.9497
2024-03-31T11:23:33.661Z,59.6124
2024-03-31T11:24:36.713Z,60.5615
2024-03-31T11:25:39.721Z,59.4354
2024-03-31T11:26:42.763Z,60.7217
2024-03-31T11:27:45.851Z,60.4044
2024-03-31T11:28:48.809Z,63.5279
2024-03-31T11:29:51.881Z,63.9582
2024-03-31T11:30:54.979Z,64.1230
2024-03-31T11:31:58.002Z,63.5264
2024-03-31T11:33:01.065Z,64.1505
2024-03-31T11:34:04.114Z,66.4698
2024-03-31T11:35:07.104Z,66.2791
2024-03-31T11:36:10.113Z,66.3279
2024-03-31T11:37:13.104Z,66.0731
2024-03-31T11:38:16.149Z,64.9012
2024-03-31T11:39:19.183Z,65.3040
2024-03-31T11:40:22.215Z,65.6245
2024-03-31T11:41:25.218Z,64.6403
2024-03-31T11:42:28.239Z,64.8142
2024-03-31T11:43:31.294Z,65.4230
2024-03-31T11:44:34.287Z,63.6790
2024-03-31T11:45:37.330Z,61.6403
2024-03-31T11:46:40.360Z,61.0132
2024-03-31T11:47:43.368Z,59.3484
2024-03-31T11:48:46.367Z,59.6490
2024-03-31T11:49:49.383Z,59.4995
2024-03-31T11:50:52.414Z,61.6510
2024-03-31T11:51:55.419Z,61.7838
2024-03-31T11:52:58.419Z,60.9125
2024-03-31T11:54:01.422Z,61.2696
2024-03-31T11:55:04.455Z,62.1302
2024-03-31T11:56:07.456Z,60.4471
2024-03-31T11:57:10.484Z,60.3967
2024-03-31T11:58:13.485Z,58.0850
2024-03-31T11:59:16.485Z,58.7793
2024-03-31T12:00:19.492Z,59.1836
2024-03-31T12:01:22.523Z,56.6842
2024-03-31T12:02:25.536Z,57.4655
2024-03-31T12:03:28.524Z,57.1725
2024-03-31T12:04:31.577Z,54.1146
2024-03-31T12:05:34.536Z,55.1415
2024-03-31T12:06:37.558Z,58.0789
2024-03-31T12:07:40.593Z,55.6680
2024-03-31T12:08:47.542Z,58.3124
2024-03-31T12:09:51.037Z,58.5229
2024-03-31T12:10:54.041Z,54.4137
2024-03-31T12:11:59.900Z,56.4126
2024-03-31T12:13:03.421Z,55.3506
2024-03-31T12:14:06.438Z,54.6822
2024-03-31T12:15:09.468Z,52.0912
2024-03-31T12:16:12.471Z,51.2001
2024-03-31T12:17:15.464Z,48.9601
2024-03-31T12:18:18.483Z,48.1559
2024-03-31T12:19:21.459Z,54.6929
2024-03-31T12:20:24.483Z,55.9869
2024-03-31T12:21:27.500Z,57.4533
2024-03-31T12:22:30.519Z,58.8663
2024-03-31T12:23:33.587Z,58.9227
2024-03-31T12:24:36.587Z,61.0788
2024-03-31T12:25:39.563Z,60.2640
2024-03-31T12:26:42.569Z,60.6241
2024-03-31T12:27:45.525Z,60.3647
2024-03-31T12:28:48.560Z,58.5595
2024-03-31T12:29:51.585Z,57.8881
2024-03-31T12:30:54.612Z,60.4517
2024-03-31T12:31:57.868Z,55.8648
2024-03-31T12:33:00.822Z,55.2911
2024-03-31T12:34:03.795Z,57.0626
2024-03-31T12:35:06.818Z,55.1858
2024-03-31T12:36:09.785Z,53.2998
2024-03-31T12:37:12.773Z,53.7087
2024-03-31T12:38:15.796Z,53.8460
2024-03-31T12:39:18.800Z,51.2093
2024-03-31T12:40:21.849Z,51.8898
2024-03-31T12:41:25.951Z,48.2017
2024-03-31T12:42:29.152Z,47.8218
2024-03-31T12:43:32.140Z,52.3384